sensor_id;sensor_type;location;lat;lon;timestamp;pressure;altitude;pressure_sealevel;temperature;humidity
3832;BME280;12460;42.662;23.288;2023-02-13T00:14:29;96262.72;;;1.75;63.82
3832;BME280;12460;42.662;23.288;2023-02-13T00:29:34;96252.22;;;1.79;63.66
3832;BME280;12460;42.662;23.288;2023-02-13T00:44:39;96255.13;;;1.84;63.59
3832;BME280;12460;42.662;23.288;2023-02-13T00:59:43;96271.13;;;1.89;63.37
3832;BME280;12460;42.662;23.288;2023-02-13T01:14:48;96276.66;;;1.89;63.79
3832;BME280;12460;42.662;23.288;2023-02-13T01:29:53;96278.00;;;1.94;64.13
3832;BME280;12460;42.662;23.288;2023-02-13T01:45:01;96287.03;;;2.03;64.04
3832;BME280;12460;42.662;23.288;2023-02-13T02:00:12;96312.81;;;2.19;63.96
3832;BME280;12460;42.662;23.288;2023-02-13T02:15:20;96288.97;;;2.36;64.41
3832;BME280;12460;42.662;23.288;2023-02-13T02:30:53;96293.19;;;2.46;63.92
3832;BME280;12460;42.662;23.288;2023-02-13T02:46:15;96297.97;;;2.45;63.91
3832;BME280;12460;42.662;23.288;2023-02-13T03:01:24;96321.91;;;2.43;63.97
3832;BME280;12460;42.662;23.288;2023-02-13T03:16:50;96312.91;;;2.48;63.48
3832;BME280;12460;42.662;23.288;2023-02-13T03:32:42;96318.09;;;2.55;63.21
3832;BME280;12460;42.662;23.288;2023-02-13T03:47:46;96312.38;;;2.58;63.00
3832;BME280;12460;42.662;23.288;2023-02-13T04:03:12;96289.59;;;2.54;62.48
3832;BME280;12460;42.662;23.288;2023-02-13T04:18:24;96309.47;;;2.53;62.46
3832;BME280;12460;42.662;23.288;2023-02-13T04:33:30;96312.91;;;2.48;62.10
3832;BME280;12460;42.662;23.288;2023-02-13T04:48:34;96313.50;;;2.52;62.33
3832;BME280;12460;42.662;23.288;2023-02-13T05:03:41;96334.31;;;2.56;62.41
3832;BME280;12460;42.662;23.288;2023-02-13T05:18:46;96335.94;;;2.63;62.10
3832;BME280;12460;42.662;23.288;2023-02-13T05:33:51;96350.41;;;2.67;61.67
3832;BME280;12460;42.662;23.288;2023-02-13T05:48:56;96367.28;;;2.78;61.50
3832;BME280;12460;42.662;23.288;2023-02-13T06:04:01;96360.22;;;2.92;60.69
3832;BME280;12460;42.662;23.288;2023-02-13T06:19:07;96376.81;;;3.01;60.35
3832;BME280;12460;42.662;23.288;2023-02-13T06:34:12;96392.34;;;3.22;60.34
3832;BME280;12460;42.662;23.288;2023-02-13T06:49:16;96388.06;;;3.35;59.96
3832;BME280;12460;42.662;23.288;2023-02-13T07:04:21;96393.81;;;3.61;58.97
3832;BME280;12460;42.662;23.288;2023-02-13T07:19:26;96381.53;;;3.82;58.71
3832;BME280;12460;42.662;23.288;2023-02-13T07:34:31;96397.66;;;3.93;57.78
3832;BME280;12460;42.662;23.288;2023-02-13T07:49:36;96393.09;;;4.10;56.31
3832;BME280;12460;42.662;23.288;2023-02-13T08:04:41;96400.66;;;4.44;55.84
3832;BME280;12460;42.662;23.288;2023-02-13T08:19:51;96395.28;;;4.75;55.19
3832;BME280;12460;42.662;23.288;2023-02-13T08:34:56;96396.94;;;5.08;54.10
3832;BME280;12460;42.662;23.288;2023-02-13T08:50:01;96395.53;;;5.18;54.08
3832;BME280;12460;42.662;23.288;2023-02-13T09:05:06;96396.00;;;5.36;53.35
3832;BME280;12460;42.662;23.288;2023-02-13T09:20:11;96394.47;;;5.87;52.50
3832;BME280;12460;42.662;23.288;2023-02-13T09:35:17;96370.28;;;8.93;46.84
3832;BME280;12460;42.662;23.288;2023-02-13T09:50:28;96352.50;;;11.10;40.63
3832;BME280;12460;42.662;23.288;2023-02-13T10:05:47;96332.91;;;11.92;39.55
3832;BME280;12460;42.662;23.288;2023-02-13T10:20:59;96304.97;;;13.51;36.21
3832;BME280;12460;42.662;23.288;2023-02-13T10:36:17;96281.72;;;14.41;34.11
3832;BME280;12460;42.662;23.288;2023-02-13T10:51:34;96258.31;;;15.04;33.43
3832;BME280;12460;42.662;23.288;2023-02-13T11:06:45;96237.22;;;15.20;32.05
3832;BME280;12460;42.662;23.288;2023-02-13T11:22:08;96217.69;;;15.45;31.32
3832;BME280;12460;42.662;23.288;2023-02-13T11:37:28;96189.31;;;15.45;30.93
3832;BME280;12460;42.662;23.288;2023-02-13T11:52:36;96149.78;;;15.32;31.35
3832;BME280;12460;42.662;23.288;2023-02-13T12:07:42;96122.53;;;15.14;30.54
3832;BME280;12460;42.662;23.288;2023-02-13T12:23:16;96116.00;;;14.32;31.01
3832;BME280;12460;42.662;23.288;2023-02-13T12:38:44;96122.47;;;13.84;31.23
3832;BME280;12460;42.662;23.288;2023-02-13T13:24:52;96070.94;;;12.07;34.35
3832;BME280;12460;42.662;23.288;2023-02-13T13:55:57;96054.03;;;10.65;36.58
3832;BME280;12460;42.662;23.288;2023-02-13T14:11:03;96054.25;;;9.93;38.23
3832;BME280;12460;42.662;23.288;2023-02-13T14:26:18;96036.81;;;9.33;38.81
3832;BME280;12460;42.662;23.288;2023-02-13T14:56:51;96032.16;;;8.27;41.25
3832;BME280;12460;42.662;23.288;2023-02-13T15:11:56;96023.22;;;7.77;42.47
3832;BME280;12460;42.662;23.288;2023-02-13T15:27:05;96031.53;;;7.42;42.78
3832;BME280;12460;42.662;23.288;2023-02-13T15:42:11;96044.09;;;6.96;43.61
3832;BME280;12460;42.662;23.288;2023-02-13T15:57:15;96048.22;;;6.57;45.05
3832;BME280;12460;42.662;23.288;2023-02-13T16:12:22;96047.66;;;6.14;46.71
3832;BME280;12460;42.662;23.288;2023-02-13T16:27:27;96059.16;;;5.68;47.30
3832;BME280;12460;42.662;23.288;2023-02-13T16:42:31;96071.19;;;5.37;48.81
3832;BME280;12460;42.662;23.288;2023-02-13T16:57:35;96063.16;;;5.03;49.36
3832;BME280;12460;42.662;23.288;2023-02-13T17:12:40;96069.63;;;4.88;50.17
3832;BME280;12460;42.662;23.288;2023-02-13T17:27:46;96066.19;;;4.68;51.07
3832;BME280;12460;42.662;23.288;2023-02-13T17:42:52;96070.38;;;4.52;51.37
3832;BME280;12460;42.662;23.288;2023-02-13T17:57:56;96066.47;;;4.39;51.63
3832;BME280;12460;42.662;23.288;2023-02-13T18:13:01;96049.38;;;4.25;51.04
3832;BME280;12460;42.662;23.288;2023-02-13T18:28:09;96056.06;;;4.08;51.43
3832;BME280;12460;42.662;23.288;2023-02-13T18:43:15;96055.16;;;3.91;51.74
3832;BME280;12460;42.662;23.288;2023-02-13T18:58:19;96061.53;;;3.97;51.04
3832;BME280;12460;42.662;23.288;2023-02-13T19:13:23;96067.34;;;3.99;50.80
3832;BME280;12460;42.662;23.288;2023-02-13T19:28:28;96058.25;;;3.98;50.31
3832;BME280;12460;42.662;23.288;2023-02-13T19:43:33;96054.66;;;3.92;50.43
3832;BME280;12460;42.662;23.288;2023-02-13T19:58:38;96029.78;;;3.83;50.39
3832;BME280;12460;42.662;23.288;2023-02-13T20:13:43;96053.38;;;3.93;49.86
3832;BME280;12460;42.662;23.288;2023-02-13T20:28:47;96016.06;;;3.80;48.83
3832;BME280;12460;42.662;23.288;2023-02-13T20:43:51;96013.41;;;3.91;49.33
3832;BME280;12460;42.662;23.288;2023-02-13T20:58:59;96010.63;;;3.91;50.61
3832;BME280;12460;42.662;23.288;2023-02-13T21:14:06;95993.97;;;3.96;51.16
3832;BME280;12460;42.662;23.288;2023-02-13T21:29:10;95975.22;;;3.91;52.26
3832;BME280;12460;42.662;23.288;2023-02-13T21:44:15;95982.09;;;3.96;52.79
3832;BME280;12460;42.662;23.288;2023-02-13T21:59:20;95975.00;;;3.95;53.10
3832;BME280;12460;42.662;23.288;2023-02-13T22:14:24;95963.59;;;3.93;53.61
3832;BME280;12460;42.662;23.288;2023-02-13T22:29:29;95936.69;;;3.79;54.84
3832;BME280;12460;42.662;23.288;2023-02-13T22:44:34;95941.03;;;3.85;54.80
3832;BME280;12460;42.662;23.288;2023-02-13T22:59:39;95931.72;;;3.88;54.94
3832;BME280;12460;42.662;23.288;2023-02-13T23:14:42;95911.19;;;3.86;54.59
3832;BME280;12460;42.662;23.288;2023-02-13T23:29:48;95931.19;;;3.90;54.93
3832;BME280;12460;42.662;23.288;2023-02-13T23:44:52;95919.53;;;3.86;54.15
3832;BME280;12460;42.662;23.288;2023-02-13T23:59:55;95923.53;;;3.79;54.34
